sensor_id;sensor_type;location;lat;lon;timestamp;temperature;humidity
85138;SHT31;75497;42.708;23.330;2024-01-25T00:01:38;3.64;67.83
85138;SHT31;75497;42.708;23.330;2024-01-25T00:04:04;3.69;66.66
85138;SHT31;75497;42.708;23.330;2024-01-25T00:06:29;3.74;66.52
85138;SHT31;75497;42.708;23.330;2024-01-25T00:08:55;3.78;64.83
85138;SHT31;75497;42.708;23.330;2024-01-25T00:11:20;3.67;64.20
85138;SHT31;75497;42.708;23.330;2024-01-25T00:13:46;3.62;65.22
85138;SHT31;75497;42.708;23.330;2024-01-25T00:16:11;3.35;66.09
85138;SHT31;75497;42.708;23.330;2024-01-25T00:18:37;3.25;66.14
85138;SHT31;75497;42.708;23.330;2024-01-25T00:21:02;3.32;65.75
85138;SHT31;75497;42.708;23.330;2024-01-25T00:23:28;3.35;65.96
85138;SHT31;75497;42.708;23.330;2024-01-25T00:25:53;3.49;65.46
85138;SHT31;75497;42.708;23.330;2024-01-25T00:28:21;3.59;65.77
85138;SHT31;75497;42.708;23.330;2024-01-25T00:30:46;3.70;66.38
85138;SHT31;75497;42.708;23.330;2024-01-25T00:33:12;3.83;66.68
85138;SHT31;75497;42.708;23.330;2024-01-25T00:35:37;3.94;66.11
85138;SHT31;75497;42.708;23.330;2024-01-25T00:38:03;4.07;66.47
85138;SHT31;75497;42.708;23.330;2024-01-25T00:40:29;4.02;65.72
85138;SHT31;75497;42.708;23.330;2024-01-25T00:42:55;4.09;65.06
85138;SHT31;75497;42.708;23.330;2024-01-25T00:45:21;3.91;64.75
85138;SHT31;75497;42.708;23.330;2024-01-25T00:47:47;3.71;65.11
85138;SHT31;75497;42.708;23.330;2024-01-25T00:50:13;3.83;64.79
85138;SHT31;75497;42.708;23.330;2024-01-25T00:52:39;3.84;64.32
85138;SHT31;75497;42.708;23.330;2024-01-25T00:55:05;3.80;64.64
85138;SHT31;75497;42.708;23.330;2024-01-25T00:57:31;4.04;64.86
85138;SHT31;75497;42.708;23.330;2024-01-25T00:59:58;4.04;64.57
85138;SHT31;75497;42.708;23.330;2024-01-25T01:02:24;4.11;64.80
85138;SHT31;75497;42.708;23.330;2024-01-25T01:04:55;4.05;64.59
85138;SHT31;75497;42.708;23.330;2024-01-25T01:07:21;4.11;63.97
85138;SHT31;75497;42.708;23.330;2024-01-25T01:09:46;4.09;64.53
85138;SHT31;75497;42.708;23.330;2024-01-25T01:12:12;3.97;64.68
85138;SHT31;75497;42.708;23.330;2024-01-25T01:14:39;3.83;63.71
85138;SHT31;75497;42.708;23.330;2024-01-25T01:17:04;3.77;62.74
85138;SHT31;75497;42.708;23.330;2024-01-25T01:19:31;3.71;63.33
85138;SHT31;75497;42.708;23.330;2024-01-25T01:21:56;3.81;62.64
85138;SHT31;75497;42.708;23.330;2024-01-25T01:24:22;3.81;62.89
85138;SHT31;75497;42.708;23.330;2024-01-25T01:26:47;3.81;63.42
85138;SHT31;75497;42.708;23.330;2024-01-25T01:29:14;3.91;62.64
85138;SHT31;75497;42.708;23.330;2024-01-25T01:31:39;3.98;63.04
85138;SHT31;75497;42.708;23.330;2024-01-25T01:34:05;4.12;63.99
85138;SHT31;75497;42.708;23.330;2024-01-25T01:36:30;4.11;64.75
85138;SHT31;75497;42.708;23.330;2024-01-25T01:38:56;4.08;65.31
85138;SHT31;75497;42.708;23.330;2024-01-25T01:41:21;4.04;65.12
85138;SHT31;75497;42.708;23.330;2024-01-25T01:43:47;3.99;65.96
85138;SHT31;75497;42.708;23.330;2024-01-25T01:46:23;3.98;65.74
85138;SHT31;75497;42.708;23.330;2024-01-25T01:48:52;4.04;65.88
85138;SHT31;75497;42.708;23.330;2024-01-25T01:51:17;4.02;65.36
85138;SHT31;75497;42.708;23.330;2024-01-25T01:53:43;4.12;65.29
85138;SHT31;75497;42.708;23.330;2024-01-25T01:56:09;4.07;65.66
85138;SHT31;75497;42.708;23.330;2024-01-25T01:58:35;4.02;64.60
85138;SHT31;75497;42.708;23.330;2024-01-25T02:01:02;4.08;64.77
85138;SHT31;75497;42.708;23.330;2024-01-25T02:03:27;4.02;64.67
85138;SHT31;75497;42.708;23.330;2024-01-25T02:05:53;4.09;65.08
85138;SHT31;75497;42.708;23.330;2024-01-25T02:08:19;4.15;65.05
85138;SHT31;75497;42.708;23.330;2024-01-25T02:10:45;4.19;65.95
85138;SHT31;75497;42.708;23.330;2024-01-25T02:13:10;4.18;65.78
85138;SHT31;75497;42.708;23.330;2024-01-25T02:15:36;4.12;66.09
85138;SHT31;75497;42.708;23.330;2024-01-25T02:18:01;4.15;65.97
85138;SHT31;75497;42.708;23.330;2024-01-25T02:20:28;4.26;66.05
85138;SHT31;75497;42.708;23.330;2024-01-25T02:22:53;4.28;66.01
85138;SHT31;75497;42.708;23.330;2024-01-25T02:25:19;4.07;65.86
85138;SHT31;75497;42.708;23.330;2024-01-25T02:27:44;4.08;66.42
85138;SHT31;75497;42.708;23.330;2024-01-25T02:30:10;3.94;66.64
85138;SHT31;75497;42.708;23.330;2024-01-25T02:32:35;3.97;66.20
85138;SHT31;75497;42.708;23.330;2024-01-25T02:35:01;3.93;66.02
85138;SHT31;75497;42.708;23.330;2024-01-25T02:37:26;3.59;66.77
85138;SHT31;75497;42.708;23.330;2024-01-25T02:39:52;3.50;67.40
85138;SHT31;75497;42.708;23.330;2024-01-25T02:42:18;3.63;67.12
85138;SHT31;75497;42.708;23.330;2024-01-25T02:44:44;3.67;66.66
85138;SHT31;75497;42.708;23.330;2024-01-25T02:47:09;3.76;66.96
85138;SHT31;75497;42.708;23.330;2024-01-25T02:49:35;3.86;66.55
85138;SHT31;75497;42.708;23.330;2024-01-25T02:52:01;3.86;66.78
85138;SHT31;75497;42.708;23.330;2024-01-25T02:54:26;4.01;67.09
85138;SHT31;75497;42.708;23.330;2024-01-25T02:56:52;4.08;66.32
85138;SHT31;75497;42.708;23.330;2024-01-25T02:59:17;4.14;66.26
85138;SHT31;75497;42.708;23.330;2024-01-25T03:01:43;4.21;66.18
85138;SHT31;75497;42.708;23.330;2024-01-25T03:04:10;4.19;65.36
85138;SHT31;75497;42.708;23.330;2024-01-25T03:06:35;4.05;66.09
85138;SHT31;75497;42.708;23.330;2024-01-25T03:09:01;4.29;65.70
85138;SHT31;75497;42.708;23.330;2024-01-25T03:11:30;4.56;65.56
85138;SHT31;75497;42.708;23.330;2024-01-25T03:13:55;4.80;65.52
85138;SHT31;75497;42.708;23.330;2024-01-25T03:16:21;5.32;64.75
85138;SHT31;75497;42.708;23.330;2024-01-25T03:18:46;5.76;64.21
85138;SHT31;75497;42.708;23.330;2024-01-25T03:21:12;6.03;63.27
85138;SHT31;75497;42.708;23.330;2024-01-25T03:23:38;6.22;62.96
85138;SHT31;75497;42.708;23.330;2024-01-25T03:26:04;6.31;62.98
85138;SHT31;75497;42.708;23.330;2024-01-25T03:28:29;6.40;62.76
85138;SHT31;75497;42.708;23.330;2024-01-25T03:30:55;6.47;62.87
85138;SHT31;75497;42.708;23.330;2024-01-25T03:33:20;6.61;62.53
85138;SHT31;75497;42.708;23.330;2024-01-25T03:35:46;6.68;62.42
85138;SHT31;75497;42.708;23.330;2024-01-25T03:38:11;6.63;62.80
85138;SHT31;75497;42.708;23.330;2024-01-25T03:40:39;6.65;62.51
85138;SHT31;75497;42.708;23.330;2024-01-25T03:43:04;6.53;62.24
85138;SHT31;75497;42.708;23.330;2024-01-25T03:45:30;6.54;62.31
85138;SHT31;75497;42.708;23.330;2024-01-25T03:47:57;6.48;62.10
85138;SHT31;75497;42.708;23.330;2024-01-25T03:50:23;6.50;61.97
85138;SHT31;75497;42.708;23.330;2024-01-25T03:52:48;6.40;62.27
85138;SHT31;75497;42.708;23.330;2024-01-25T03:55:14;6.34;62.03
85138;SHT31;75497;42.708;23.330;2024-01-25T03:57:39;6.26;62.69
85138;SHT31;75497;42.708;23.330;2024-01-25T04:00:06;6.36;62.33
85138;SHT31;75497;42.708;23.330;2024-01-25T04:02:32;6.36;62.13
85138;SHT31;75497;42.708;23.330;2024-01-25T04:04:57;6.31;62.13
85138;SHT31;75497;42.708;23.330;2024-01-25T04:07:23;6.26;62.28
85138;SHT31;75497;42.708;23.330;2024-01-25T04:09:48;6.27;62.38
85138;SHT31;75497;42.708;23.330;2024-01-25T04:12:15;6.24;62.22
85138;SHT31;75497;42.708;23.330;2024-01-25T04:14:41;5.93;63.04
85138;SHT31;75497;42.708;23.330;2024-01-25T04:17:07;5.89;63.02
85138;SHT31;75497;42.708;23.330;2024-01-25T04:19:32;5.71;63.46
85138;SHT31;75497;42.708;23.330;2024-01-25T04:21:58;5.52;63.83
85138;SHT31;75497;42.708;23.330;2024-01-25T04:24:23;5.54;63.86
85138;SHT31;75497;42.708;23.330;2024-01-25T04:26:49;5.61;63.62
85138;SHT31;75497;42.708;23.330;2024-01-25T04:29:14;5.56;63.84
85138;SHT31;75497;42.708;23.330;2024-01-25T04:31:44;5.62;63.70
85138;SHT31;75497;42.708;23.330;2024-01-25T04:34:14;5.52;63.74
85138;SHT31;75497;42.708;23.330;2024-01-25T04:36:40;5.37;64.26
85138;SHT31;75497;42.708;23.330;2024-01-25T04:39:05;5.21;64.75
85138;SHT31;75497;42.708;23.330;2024-01-25T04:41:31;5.23;64.71
85138;SHT31;75497;42.708;23.330;2024-01-25T04:43:56;5.18;65.09
85138;SHT31;75497;42.708;23.330;2024-01-25T04:46:22;5.11;64.81
85138;SHT31;75497;42.708;23.330;2024-01-25T04:48:47;5.11;64.80
85138;SHT31;75497;42.708;23.330;2024-01-25T04:51:16;4.94;65.33
85138;SHT31;75497;42.708;23.330;2024-01-25T04:53:42;4.96;65.34
85138;SHT31;75497;42.708;23.330;2024-01-25T04:56:08;4.94;65.28
85138;SHT31;75497;42.708;23.330;2024-01-25T04:58:34;4.89;65.55
85138;SHT31;75497;42.708;23.330;2024-01-25T05:01:00;4.84;65.73
85138;SHT31;75497;42.708;23.330;2024-01-25T05:03:25;4.96;65.14
85138;SHT31;75497;42.708;23.330;2024-01-25T05:05:51;4.86;65.60
85138;SHT31;75497;42.708;23.330;2024-01-25T05:08:16;5.00;65.18
85138;SHT31;75497;42.708;23.330;2024-01-25T05:10:42;5.03;65.06
85138;SHT31;75497;42.708;23.330;2024-01-25T05:13:08;4.96;65.17
85138;SHT31;75497;42.708;23.330;2024-01-25T05:15:34;4.97;65.21
85138;SHT31;75497;42.708;23.330;2024-01-25T05:18:03;4.97;65.18
85138;SHT31;75497;42.708;23.330;2024-01-25T05:20:29;4.97;65.20
85138;SHT31;75497;42.708;23.330;2024-01-25T05:22:58;4.97;65.12
85138;SHT31;75497;42.708;23.330;2024-01-25T05:25:24;4.99;65.03
85138;SHT31;75497;42.708;23.330;2024-01-25T05:27:51;5.01;64.21
85138;SHT31;75497;42.708;23.330;2024-01-25T05:30:17;5.13;63.27
85138;SHT31;75497;42.708;23.330;2024-01-25T05:32:43;5.30;62.51
85138;SHT31;75497;42.708;23.330;2024-01-25T05:35:09;5.35;62.31
85138;SHT31;75497;42.708;23.330;2024-01-25T05:37:35;5.48;61.69
85138;SHT31;75497;42.708;23.330;2024-01-25T05:40:00;5.65;61.17
85138;SHT31;75497;42.708;23.330;2024-01-25T05:42:26;5.69;61.15
85138;SHT31;75497;42.708;23.330;2024-01-25T05:44:51;5.73;60.93
85138;SHT31;75497;42.708;23.330;2024-01-25T05:47:17;5.78;60.64
85138;SHT31;75497;42.708;23.330;2024-01-25T05:49:42;5.90;60.07
85138;SHT31;75497;42.708;23.330;2024-01-25T05:52:08;5.96;59.94
85138;SHT31;75497;42.708;23.330;2024-01-25T05:54:33;5.99;60.15
85138;SHT31;75497;42.708;23.330;2024-01-25T05:56:59;5.98;60.60
85138;SHT31;75497;42.708;23.330;2024-01-25T05:59:24;5.93;60.52
85138;SHT31;75497;42.708;23.330;2024-01-25T06:01:50;5.95;61.31
85138;SHT31;75497;42.708;23.330;2024-01-25T06:04:16;5.89;61.69
85138;SHT31;75497;42.708;23.330;2024-01-25T06:06:41;5.86;61.64
85138;SHT31;75497;42.708;23.330;2024-01-25T06:09:07;5.86;61.65
85138;SHT31;75497;42.708;23.330;2024-01-25T06:11:33;5.78;61.68
85138;SHT31;75497;42.708;23.330;2024-01-25T06:14:00;5.81;61.64
85138;SHT31;75497;42.708;23.330;2024-01-25T06:16:26;5.83;61.55
85138;SHT31;75497;42.708;23.330;2024-01-25T06:18:51;5.81;61.19
85138;SHT31;75497;42.708;23.330;2024-01-25T06:21:17;5.85;61.10
85138;SHT31;75497;42.708;23.330;2024-01-25T06:23:42;5.76;61.61
85138;SHT31;75497;42.708;23.330;2024-01-25T06:26:08;5.83;61.48
85138;SHT31;75497;42.708;23.330;2024-01-25T06:28:33;5.83;61.80
85138;SHT31;75497;42.708;23.330;2024-01-25T06:31:01;5.98;61.50
85138;SHT31;75497;42.708;23.330;2024-01-25T06:33:26;5.98;61.53
85138;SHT31;75497;42.708;23.330;2024-01-25T06:35:52;5.93;61.72
85138;SHT31;75497;42.708;23.330;2024-01-25T06:38:17;5.93;61.95
85138;SHT31;75497;42.708;23.330;2024-01-25T06:40:43;6.00;61.55
85138;SHT31;75497;42.708;23.330;2024-01-25T06:43:09;6.05;61.32
85138;SHT31;75497;42.708;23.330;2024-01-25T06:45:34;6.00;61.57
85138;SHT31;75497;42.708;23.330;2024-01-25T06:48:00;6.06;61.34
85138;SHT31;75497;42.708;23.330;2024-01-25T06:50:26;6.12;61.18
85138;SHT31;75497;42.708;23.330;2024-01-25T06:52:51;6.17;60.91
85138;SHT31;75497;42.708;23.330;2024-01-25T06:55:19;6.14;60.56
85138;SHT31;75497;42.708;23.330;2024-01-25T06:57:44;6.20;60.57
85138;SHT31;75497;42.708;23.330;2024-01-25T07:00:10;6.20;60.82
85138;SHT31;75497;42.708;23.330;2024-01-25T07:02:38;6.19;60.74
85138;SHT31;75497;42.708;23.330;2024-01-25T07:05:04;6.19;60.49
85138;SHT31;75497;42.708;23.330;2024-01-25T07:07:30;6.22;60.72
85138;SHT31;75497;42.708;23.330;2024-01-25T07:09:58;6.34;59.97
85138;SHT31;75497;42.708;23.330;2024-01-25T07:12:23;6.41;59.75
85138;SHT31;75497;42.708;23.330;2024-01-25T07:14:49;6.48;59.61
85138;SHT31;75497;42.708;23.330;2024-01-25T07:17:14;6.61;59.30
85138;SHT31;75497;42.708;23.330;2024-01-25T07:19:39;6.63;59.23
85138;SHT31;75497;42.708;23.330;2024-01-25T07:22:05;6.57;59.14
85138;SHT31;75497;42.708;23.330;2024-01-25T07:24:31;6.64;59.06
85138;SHT31;75497;42.708;23.330;2024-01-25T07:26:56;6.60;58.90
85138;SHT31;75497;42.708;23.330;2024-01-25T07:29:22;6.64;59.16
85138;SHT31;75497;42.708;23.330;2024-01-25T07:31:48;6.77;58.54
85138;SHT31;75497;42.708;23.330;2024-01-25T07:34:13;6.70;58.50
85138;SHT31;75497;42.708;23.330;2024-01-25T07:36:39;6.75;58.65
85138;SHT31;75497;42.708;23.330;2024-01-25T07:39:04;6.81;58.54
85138;SHT31;75497;42.708;23.330;2024-01-25T07:41:30;6.88;58.15
85138;SHT31;75497;42.708;23.330;2024-01-25T07:43:56;6.87;58.47
85138;SHT31;75497;42.708;23.330;2024-01-25T07:46:22;6.84;58.05
85138;SHT31;75497;42.708;23.330;2024-01-25T07:48:49;6.92;58.02
85138;SHT31;75497;42.708;23.330;2024-01-25T07:51:15;6.91;58.15
85138;SHT31;75497;42.708;23.330;2024-01-25T07:53:41;6.98;57.99
85138;SHT31;75497;42.708;23.330;2024-01-25T07:56:09;7.08;57.64
85138;SHT31;75497;42.708;23.330;2024-01-25T07:58:36;7.20;57.32
85138;SHT31;75497;42.708;23.330;2024-01-25T08:01:05;7.43;56.64
85138;SHT31;75497;42.708;23.330;2024-01-25T08:03:34;7.47;56.37
85138;SHT31;75497;42.708;23.330;2024-01-25T08:06:02;7.52;56.19
85138;SHT31;75497;42.708;23.330;2024-01-25T08:08:28;7.49;56.26
85138;SHT31;75497;42.708;23.330;2024-01-25T08:10:53;7.42;55.97
85138;SHT31;75497;42.708;23.330;2024-01-25T08:13:19;7.37;56.09
85138;SHT31;75497;42.708;23.330;2024-01-25T08:15:45;7.30;56.44
85138;SHT31;75497;42.708;23.330;2024-01-25T08:18:11;7.36;56.02
85138;SHT31;75497;42.708;23.330;2024-01-25T08:20:39;7.33;56.18
85138;SHT31;75497;42.708;23.330;2024-01-25T08:23:05;7.36;56.02
85138;SHT31;75497;42.708;23.330;2024-01-25T08:25:33;7.37;56.00
85138;SHT31;75497;42.708;23.330;2024-01-25T08:27:59;7.47;55.19
85138;SHT31;75497;42.708;23.330;2024-01-25T08:30:25;7.39;55.30
85138;SHT31;75497;42.708;23.330;2024-01-25T08:32:50;7.40;55.36
85138;SHT31;75497;42.708;23.330;2024-01-25T08:35:17;7.57;54.93
85138;SHT31;75497;42.708;23.330;2024-01-25T08:37:42;7.66;54.81
85138;SHT31;75497;42.708;23.330;2024-01-25T08:40:09;7.57;54.33
85138;SHT31;75497;42.708;23.330;2024-01-25T08:42:35;7.56;54.79
85138;SHT31;75497;42.708;23.330;2024-01-25T08:45:01;7.59;54.08
85138;SHT31;75497;42.708;23.330;2024-01-25T08:47:27;7.62;54.34
85138;SHT31;75497;42.708;23.330;2024-01-25T08:49:52;7.64;54.15
85138;SHT31;75497;42.708;23.330;2024-01-25T08:52:18;7.66;53.81
85138;SHT31;75497;42.708;23.330;2024-01-25T08:54:44;7.56;54.07
85138;SHT31;75497;42.708;23.330;2024-01-25T08:57:09;7.73;54.01
85138;SHT31;75497;42.708;23.330;2024-01-25T08:59:35;7.88;53.74
85138;SHT31;75497;42.708;23.330;2024-01-25T09:02:05;8.09;53.30
85138;SHT31;75497;42.708;23.330;2024-01-25T09:04:32;8.21;52.96
85138;SHT31;75497;42.708;23.330;2024-01-25T09:06:58;8.15;52.87
85138;SHT31;75497;42.708;23.330;2024-01-25T09:09:24;8.08;53.29
85138;SHT31;75497;42.708;23.330;2024-01-25T09:11:49;8.12;52.96
85138;SHT31;75497;42.708;23.330;2024-01-25T09:14:15;8.22;52.57
85138;SHT31;75497;42.708;23.330;2024-01-25T09:16:40;8.32;52.80
85138;SHT31;75497;42.708;23.330;2024-01-25T09:19:06;8.26;52.82
85138;SHT31;75497;42.708;23.330;2024-01-25T09:21:31;8.29;53.33
85138;SHT31;75497;42.708;23.330;2024-01-25T09:23:57;8.18;53.05
85138;SHT31;75497;42.708;23.330;2024-01-25T09:26:22;8.39;53.02
85138;SHT31;75497;42.708;23.330;2024-01-25T09:28:48;8.29;53.04
85138;SHT31;75497;42.708;23.330;2024-01-25T09:31:13;8.32;53.10
85138;SHT31;75497;42.708;23.330;2024-01-25T09:33:39;8.29;52.08
85138;SHT31;75497;42.708;23.330;2024-01-25T09:36:05;8.75;51.66
85138;SHT31;75497;42.708;23.330;2024-01-25T09:38:30;8.77;51.69
85138;SHT31;75497;42.708;23.330;2024-01-25T09:40:56;8.60;52.23
85138;SHT31;75497;42.708;23.330;2024-01-25T09:43:22;8.66;51.52
85138;SHT31;75497;42.708;23.330;2024-01-25T09:45:53;8.42;52.38
85138;SHT31;75497;42.708;23.330;2024-01-25T09:48:22;8.52;52.96
85138;SHT31;75497;42.708;23.330;2024-01-25T09:50:48;8.34;53.30
85138;SHT31;75497;42.708;23.330;2024-01-25T09:53:22;8.24;52.74
85138;SHT31;75497;42.708;23.330;2024-01-25T09:56:00;8.29;53.03
85138;SHT31;75497;42.708;23.330;2024-01-25T09:58:34;8.44;52.99
85138;SHT31;75497;42.708;23.330;2024-01-25T10:01:01;8.42;52.92
85138;SHT31;75497;42.708;23.330;2024-01-25T10:03:27;8.38;53.48
85138;SHT31;75497;42.708;23.330;2024-01-25T10:05:52;8.28;53.80
85138;SHT31;75497;42.708;23.330;2024-01-25T10:08:18;8.34;53.77
85138;SHT31;75497;42.708;23.330;2024-01-25T10:10:46;8.42;53.95
85138;SHT31;75497;42.708;23.330;2024-01-25T10:13:12;8.56;53.41
85138;SHT31;75497;42.708;23.330;2024-01-25T10:15:38;8.67;52.70
85138;SHT31;75497;42.708;23.330;2024-01-25T10:18:07;8.83;52.60
85138;SHT31;75497;42.708;23.330;2024-01-25T10:20:38;9.08;52.37
85138;SHT31;75497;42.708;23.330;2024-01-25T10:23:05;8.80;51.82
85138;SHT31;75497;42.708;23.330;2024-01-25T10:25:34;8.87;51.88
85138;SHT31;75497;42.708;23.330;2024-01-25T10:27:59;9.14;51.57
85138;SHT31;75497;42.708;23.330;2024-01-25T10:30:25;9.20;51.65
85138;SHT31;75497;42.708;23.330;2024-01-25T10:32:51;9.35;51.15
85138;SHT31;75497;42.708;23.330;2024-01-25T10:35:18;9.58;50.97
85138;SHT31;75497;42.708;23.330;2024-01-25T10:37:45;9.71;51.04
85138;SHT31;75497;42.708;23.330;2024-01-25T10:40:11;9.62;50.64
85138;SHT31;75497;42.708;23.330;2024-01-25T10:42:37;9.38;51.17
85138;SHT31;75497;42.708;23.330;2024-01-25T10:45:03;9.34;51.35
85138;SHT31;75497;42.708;23.330;2024-01-25T10:47:29;9.14;51.61
85138;SHT31;75497;42.708;23.330;2024-01-25T10:50:00;9.11;52.25
85138;SHT31;75497;42.708;23.330;2024-01-25T10:52:28;9.27;52.24
85138;SHT31;75497;42.708;23.330;2024-01-25T10:54:54;9.10;51.82
85138;SHT31;75497;42.708;23.330;2024-01-25T10:57:20;9.08;52.39
85138;SHT31;75497;42.708;23.330;2024-01-25T10:59:45;9.13;52.27
85138;SHT31;75497;42.708;23.330;2024-01-25T11:02:11;9.06;52.52
85138;SHT31;75497;42.708;23.330;2024-01-25T11:04:37;9.10;52.34
85138;SHT31;75497;42.708;23.330;2024-01-25T11:07:08;9.57;51.05
85138;SHT31;75497;42.708;23.330;2024-01-25T11:09:35;9.37;51.93
85138;SHT31;75497;42.708;23.330;2024-01-25T11:12:11;9.37;51.31
85138;SHT31;75497;42.708;23.330;2024-01-25T11:14:38;9.21;51.73
85138;SHT31;75497;42.708;23.330;2024-01-25T11:17:20;9.39;51.05
85138;SHT31;75497;42.708;23.330;2024-01-25T11:19:48;9.41;50.56
85138;SHT31;75497;42.708;23.330;2024-01-25T11:22:14;9.27;51.13
85138;SHT31;75497;42.708;23.330;2024-01-25T11:24:40;9.37;51.42
85138;SHT31;75497;42.708;23.330;2024-01-25T11:27:06;9.14;50.44
85138;SHT31;75497;42.708;23.330;2024-01-25T11:29:31;9.00;50.95
85138;SHT31;75497;42.708;23.330;2024-01-25T11:31:57;8.91;50.93
85138;SHT31;75497;42.708;23.330;2024-01-25T11:34:23;8.67;50.01
85138;SHT31;75497;42.708;23.330;2024-01-25T11:36:48;8.59;50.54
85138;SHT31;75497;42.708;23.330;2024-01-25T11:39:15;8.53;51.35
85138;SHT31;75497;42.708;23.330;2024-01-25T11:41:42;8.50;51.12
85138;SHT31;75497;42.708;23.330;2024-01-25T11:44:14;8.55;50.84
85138;SHT31;75497;42.708;23.330;2024-01-25T11:46:40;8.52;51.06
85138;SHT31;75497;42.708;23.330;2024-01-25T11:49:06;8.80;50.32
85138;SHT31;75497;42.708;23.330;2024-01-25T11:51:35;8.73;50.77
85138;SHT31;75497;42.708;23.330;2024-01-25T11:54:00;8.50;50.87
85138;SHT31;75497;42.708;23.330;2024-01-25T11:56:32;8.44;51.07
85138;SHT31;75497;42.708;23.330;2024-01-25T11:58:58;8.49;51.22
85138;SHT31;75497;42.708;23.330;2024-01-25T12:01:25;8.50;51.24
85138;SHT31;75497;42.708;23.330;2024-01-25T12:03:51;8.56;51.15
85138;SHT31;75497;42.708;23.330;2024-01-25T12:06:17;8.48;51.19
85138;SHT31;75497;42.708;23.330;2024-01-25T12:08:44;8.45;51.54
85138;SHT31;75497;42.708;23.330;2024-01-25T12:11:10;8.39;51.64
85138;SHT31;75497;42.708;23.330;2024-01-25T12:13:39;8.32;51.82
85138;SHT31;75497;42.708;23.330;2024-01-25T12:16:05;8.28;51.80
85138;SHT31;75497;42.708;23.330;2024-01-25T12:18:31;8.35;52.02
85138;SHT31;75497;42.708;23.330;2024-01-25T12:21:02;8.49;51.46
85138;SHT31;75497;42.708;23.330;2024-01-25T12:23:32;9.24;49.67
85138;SHT31;75497;42.708;23.330;2024-01-25T12:26:03;10.60;46.87
85138;SHT31;75497;42.708;23.330;2024-01-25T12:28:30;11.29;44.76
85138;SHT31;75497;42.708;23.330;2024-01-25T12:30:56;12.79;41.61
85138;SHT31;75497;42.708;23.330;2024-01-25T12:33:22;13.57;39.97
85138;SHT31;75497;42.708;23.330;2024-01-25T12:35:48;12.72;40.50
85138;SHT31;75497;42.708;23.330;2024-01-25T12:38:13;13.37;39.68
85138;SHT31;75497;42.708;23.330;2024-01-25T12:40:41;13.33;39.43
85138;SHT31;75497;42.708;23.330;2024-01-25T12:43:07;13.16;39.57
85138;SHT31;75497;42.708;23.330;2024-01-25T12:45:32;12.88;39.30
85138;SHT31;75497;42.708;23.330;2024-01-25T12:47:58;12.99;39.87
85138;SHT31;75497;42.708;23.330;2024-01-25T12:50:24;12.72;39.84
85138;SHT31;75497;42.708;23.330;2024-01-25T14:44:23;7.90;52.75
85138;SHT31;75497;42.708;23.330;2024-01-25T14:46:49;7.84;52.82
85138;SHT31;75497;42.708;23.330;2024-01-25T14:49:14;7.81;52.36
85138;SHT31;75497;42.708;23.330;2024-01-25T14:51:40;7.74;52.81
85138;SHT31;75497;42.708;23.330;2024-01-25T14:54:05;7.69;52.78
85138;SHT31;75497;42.708;23.330;2024-01-25T14:56:31;7.67;53.09
85138;SHT31;75497;42.708;23.330;2024-01-25T14:58:57;7.64;52.83
85138;SHT31;75497;42.708;23.330;2024-01-25T15:01:22;7.67;52.67
85138;SHT31;75497;42.708;23.330;2024-01-25T15:03:53;7.63;52.91
85138;SHT31;75497;42.708;23.330;2024-01-25T15:06:19;7.63;53.08
85138;SHT31;75497;42.708;23.330;2024-01-25T15:08:44;7.59;53.16
85138;SHT31;75497;42.708;23.330;2024-01-25T15:11:10;7.62;53.21
85138;SHT31;75497;42.708;23.330;2024-01-25T15:13:36;7.64;53.08
85138;SHT31;75497;42.708;23.330;2024-01-25T15:16:02;7.60;53.19
85138;SHT31;75497;42.708;23.330;2024-01-25T15:18:27;7.53;53.43
85138;SHT31;75497;42.708;23.330;2024-01-25T15:20:53;7.56;53.42
85138;SHT31;75497;42.708;23.330;2024-01-25T15:23:18;7.50;53.62
85138;SHT31;75497;42.708;23.330;2024-01-25T15:25:44;7.47;53.77
85138;SHT31;75497;42.708;23.330;2024-01-25T15:28:09;7.47;53.82
85138;SHT31;75497;42.708;23.330;2024-01-25T15:30:35;7.46;53.69
85138;SHT31;75497;42.708;23.330;2024-01-25T15:33:01;7.43;54.09
85138;SHT31;75497;42.708;23.330;2024-01-25T15:35:27;7.46;53.82
85138;SHT31;75497;42.708;23.330;2024-01-25T15:37:53;7.46;53.82
85138;SHT31;75497;42.708;23.330;2024-01-25T15:40:18;7.44;54.14
85138;SHT31;75497;42.708;23.330;2024-01-25T15:42:45;7.43;53.96
85138;SHT31;75497;42.708;23.330;2024-01-25T15:45:11;7.42;54.31
85138;SHT31;75497;42.708;23.330;2024-01-25T15:47:36;7.42;54.57
85138;SHT31;75497;42.708;23.330;2024-01-25T15:50:03;7.39;54.55
85138;SHT31;75497;42.708;23.330;2024-01-25T15:52:32;7.39;54.98
85138;SHT31;75497;42.708;23.330;2024-01-25T15:54:58;7.35;55.10
85138;SHT31;75497;42.708;23.330;2024-01-25T15:57:23;7.32;55.49
85138;SHT31;75497;42.708;23.330;2024-01-25T15:59:50;7.33;55.56
85138;SHT31;75497;42.708;23.330;2024-01-25T16:02:16;7.32;55.69
85138;SHT31;75497;42.708;23.330;2024-01-25T16:04:43;7.30;55.88
85138;SHT31;75497;42.708;23.330;2024-01-25T16:07:09;7.29;56.33
85138;SHT31;75497;42.708;23.330;2024-01-25T16:09:38;7.25;56.77
85138;SHT31;75497;42.708;23.330;2024-01-25T16:12:06;7.26;56.83
85138;SHT31;75497;42.708;23.330;2024-01-25T16:14:31;7.26;57.05
85138;SHT31;75497;42.708;23.330;2024-01-25T16:16:57;7.19;57.68
85138;SHT31;75497;42.708;23.330;2024-01-25T16:19:22;7.29;57.28
85138;SHT31;75497;42.708;23.330;2024-01-25T16:21:48;7.26;57.59
85138;SHT31;75497;42.708;23.330;2024-01-25T16:24:13;7.25;57.62
85138;SHT31;75497;42.708;23.330;2024-01-25T16:26:39;7.20;57.71
85138;SHT31;75497;42.708;23.330;2024-01-25T16:29:04;7.26;57.61
85138;SHT31;75497;42.708;23.330;2024-01-25T16:31:30;7.13;57.98
85138;SHT31;75497;42.708;23.330;2024-01-25T16:33:55;7.09;58.13
85138;SHT31;75497;42.708;23.330;2024-01-25T16:36:21;7.11;58.08
85138;SHT31;75497;42.708;23.330;2024-01-25T16:38:46;7.12;57.94
85138;SHT31;75497;42.708;23.330;2024-01-25T16:41:12;7.09;58.06
85138;SHT31;75497;42.708;23.330;2024-01-25T16:43:37;7.05;58.28
85138;SHT31;75497;42.708;23.330;2024-01-25T16:46:03;7.06;58.42
85138;SHT31;75497;42.708;23.330;2024-01-25T16:48:29;7.03;58.41
85138;SHT31;75497;42.708;23.330;2024-01-25T16:50:54;7.02;58.58
85138;SHT31;75497;42.708;23.330;2024-01-25T16:53:20;7.03;58.60
85138;SHT31;75497;42.708;23.330;2024-01-25T16:55:46;6.96;59.07
85138;SHT31;75497;42.708;23.330;2024-01-25T16:58:14;6.89;59.50
85138;SHT31;75497;42.708;23.330;2024-01-25T17:00:39;6.81;59.84
85138;SHT31;75497;42.708;23.330;2024-01-25T17:03:04;6.78;60.15
85138;SHT31;75497;42.708;23.330;2024-01-25T17:05:30;6.71;60.77
85138;SHT31;75497;42.708;23.330;2024-01-25T17:07:55;6.74;60.65
85138;SHT31;75497;42.708;23.330;2024-01-25T17:10:21;6.68;61.15
85138;SHT31;75497;42.708;23.330;2024-01-25T17:12:47;6.68;61.36
85138;SHT31;75497;42.708;23.330;2024-01-25T17:15:12;6.64;61.20